sensor_id;sensor_type;location;lat;lon;timestamp;P1;durP1;ratioP1;P2;durP2;ratioP2
19482;SDS011;9882;51.166;6.992;2022-11-24T00:01:50;13.25;;;4.35;;
19482;SDS011;9882;51.166;6.992;2022-11-24T00:04:27;13.60;;;4.68;;
19482;SDS011;9882;51.166;6.992;2022-11-24T00:07:01;15.75;;;4.05;;
19482;SDS011;9882;51.166;6.992;2022-11-24T00:09:31;27.70;;;5.35;;
19482;SDS011;9882;51.166;6.992;2022-11-24T00:12:02;14.18;;;4.35;;
19482;SDS011;9882;51.166;6.992;2022-11-24T00:14:34;13.38;;;4.35;;
19482;SDS011;9882;51.166;6.992;2022-11-24T00:17:06;18.77;;;5.10;;
19482;SDS011;9882;51.166;6.992;2022-11-24T00:19:41;16.33;;;4.30;;
19482;SDS011;9882;51.166;6.992;2022-11-24T00:22:12;15.60;;;4.28;;
19482;SDS011;9882;51.166;6.992;2022-11-24T00:24:43;15.15;;;3.92;;
19482;SDS011;9882;51.166;6.992;2022-11-24T00:27:17;21.50;;;4.65;;
19482;SDS011;9882;51.166;6.992;2022-11-24T00:29:55;19.42;;;4.13;;
19482;SDS011;9882;51.166;6.992;2022-11-24T00:32:26;12.93;;;3.92;;
19482;SDS011;9882;51.166;6.992;2022-11-24T00:35:00;12.85;;;3.85;;
19482;SDS011;9882;51.166;6.992;2022-11-24T00:37:34;14.70;;;4.38;;
19482;SDS011;9882;51.166;6.992;2022-11-24T00:46:01;12.02;;;4.22;;
19482;SDS011;9882;51.166;6.992;2022-11-24T00:48:30;21.13;;;4.60;;
19482;SDS011;9882;51.166;6.992;2022-11-24T00:58:29;23.50;;;4.55;;
19482;SDS011;9882;51.166;6.992;2022-11-24T01:14:58;18.58;;;4.15;;
19482;SDS011;9882;51.166;6.992;2022-11-24T01:51:31;13.30;;;4.22;;
19482;SDS011;9882;51.166;6.992;2022-11-24T01:54:04;10.10;;;3.13;;
19482;SDS011;9882;51.166;6.992;2022-11-24T01:56:37;12.45;;;3.85;;
19482;SDS011;9882;51.166;6.992;2022-11-24T01:59:09;18.58;;;3.97;;
19482;SDS011;9882;51.166;6.992;2022-11-24T02:01:41;21.88;;;4.30;;
19482;SDS011;9882;51.166;6.992;2022-11-24T02:04:11;13.05;;;3.25;;
19482;SDS011;9882;51.166;6.992;2022-11-24T02:06:46;11.55;;;3.80;;
19482;SDS011;9882;51.166;6.992;2022-11-24T02:09:17;14.98;;;3.97;;
19482;SDS011;9882;51.166;6.992;2022-11-24T02:11:50;16.60;;;3.83;;
19482;SDS011;9882;51.166;6.992;2022-11-24T02:14:21;10.40;;;3.55;;
19482;SDS011;9882;51.166;6.992;2022-11-24T02:16:52;15.48;;;3.33;;
19482;SDS011;9882;51.166;6.992;2022-11-24T02:19:24;17.17;;;4.05;;
19482;SDS011;9882;51.166;6.992;2022-11-24T02:22:04;13.93;;;3.40;;
19482;SDS011;9882;51.166;6.992;2022-11-24T02:24:40;16.90;;;4.28;;
19482;SDS011;9882;51.166;6.992;2022-11-24T02:27:16;22.92;;;4.22;;
19482;SDS011;9882;51.166;6.992;2022-11-24T02:29:47;12.52;;;3.42;;
19482;SDS011;9882;51.166;6.992;2022-11-24T02:32:17;21.02;;;4.05;;
19482;SDS011;9882;51.166;6.992;2022-11-24T02:34:46;9.50;;;3.80;;
19482;SDS011;9882;51.166;6.992;2022-11-24T02:37:16;7.20;;;3.33;;
19482;SDS011;9882;51.166;6.992;2022-11-24T02:39:45;13.70;;;4.63;;
19482;SDS011;9882;51.166;6.992;2022-11-24T02:42:16;15.50;;;4.28;;
19482;SDS011;9882;51.166;6.992;2022-11-24T02:44:46;17.35;;;4.03;;
19482;SDS011;9882;51.166;6.992;2022-11-24T02:47:19;8.63;;;3.85;;
19482;SDS011;9882;51.166;6.992;2022-11-24T02:49:48;14.15;;;3.85;;
19482;SDS011;9882;51.166;6.992;2022-11-24T02:52:18;19.48;;;4.68;;
19482;SDS011;9882;51.166;6.992;2022-11-24T02:54:47;6.68;;;3.30;;
19482;SDS011;9882;51.166;6.992;2022-11-24T02:57:18;11.73;;;4.13;;
19482;SDS011;9882;51.166;6.992;2022-11-24T02:59:52;10.63;;;3.35;;
19482;SDS011;9882;51.166;6.992;2022-11-24T03:02:21;14.63;;;3.97;;
19482;SDS011;9882;51.166;6.992;2022-11-24T03:04:55;13.93;;;4.25;;
19482;SDS011;9882;51.166;6.992;2022-11-24T03:07:25;19.63;;;4.97;;
19482;SDS011;9882;51.166;6.992;2022-11-24T03:09:54;22.60;;;4.80;;
19482;SDS011;9882;51.166;6.992;2022-11-24T03:12:25;18.98;;;4.30;;
19482;SDS011;9882;51.166;6.992;2022-11-24T03:14:55;19.02;;;4.35;;
19482;SDS011;9882;51.166;6.992;2022-11-24T03:17:24;23.67;;;4.70;;
19482;SDS011;9882;51.166;6.992;2022-11-24T03:19:54;14.45;;;3.72;;
19482;SDS011;9882;51.166;6.992;2022-11-24T03:22:25;18.15;;;5.05;;
19482;SDS011;9882;51.166;6.992;2022-11-24T03:24:54;14.82;;;3.88;;
19482;SDS011;9882;51.166;6.992;2022-11-24T03:27:24;9.50;;;3.45;;
19482;SDS011;9882;51.166;6.992;2022-11-24T03:29:53;13.05;;;3.42;;
19482;SDS011;9882;51.166;6.992;2022-11-24T03:32:23;17.17;;;3.90;;
19482;SDS011;9882;51.166;6.992;2022-11-24T03:34:52;16.67;;;4.40;;
19482;SDS011;9882;51.166;6.992;2022-11-24T03:37:21;17.67;;;3.72;;
19482;SDS011;9882;51.166;6.992;2022-11-24T03:39:50;9.88;;;3.72;;
19482;SDS011;9882;51.166;6.992;2022-11-24T03:42:19;9.85;;;3.53;;
19482;SDS011;9882;51.166;6.992;2022-11-24T03:44:50;13.68;;;3.88;;
19482;SDS011;9882;51.166;6.992;2022-11-24T03:47:19;17.25;;;4.40;;
19482;SDS011;9882;51.166;6.992;2022-11-24T03:49:47;13.40;;;3.75;;
19482;SDS011;9882;51.166;6.992;2022-11-24T03:52:17;13.60;;;3.38;;
19482;SDS011;9882;51.166;6.992;2022-11-24T03:54:46;13.05;;;3.47;;
19482;SDS011;9882;51.166;6.992;2022-11-24T03:57:14;14.77;;;3.80;;
19482;SDS011;9882;51.166;6.992;2022-11-24T03:59:43;8.15;;;2.97;;
19482;SDS011;9882;51.166;6.992;2022-11-24T04:02:14;17.80;;;3.95;;
19482;SDS011;9882;51.166;6.992;2022-11-24T04:04:43;10.90;;;3.55;;
19482;SDS011;9882;51.166;6.992;2022-11-24T04:07:16;10.75;;;3.28;;
19482;SDS011;9882;51.166;6.992;2022-11-24T04:09:45;10.13;;;4.00;;
19482;SDS011;9882;51.166;6.992;2022-11-24T04:12:14;13.20;;;3.88;;
19482;SDS011;9882;51.166;6.992;2022-11-24T04:15:01;11.43;;;3.40;;
19482;SDS011;9882;51.166;6.992;2022-11-24T04:17:31;19.85;;;4.22;;
19482;SDS011;9882;51.166;6.992;2022-11-24T04:20:00;20.23;;;4.70;;
19482;SDS011;9882;51.166;6.992;2022-11-24T04:22:29;19.83;;;3.60;;
19482;SDS011;9882;51.166;6.992;2022-11-24T04:24:57;10.10;;;3.63;;
19482;SDS011;9882;51.166;6.992;2022-11-24T04:27:26;15.35;;;3.80;;
19482;SDS011;9882;51.166;6.992;2022-11-24T04:29:55;16.02;;;3.70;;
19482;SDS011;9882;51.166;6.992;2022-11-24T04:32:24;17.63;;;4.05;;
19482;SDS011;9882;51.166;6.992;2022-11-24T04:34:54;14.60;;;4.13;;
19482;SDS011;9882;51.166;6.992;2022-11-24T04:37:23;15.65;;;4.25;;
19482;SDS011;9882;51.166;6.992;2022-11-24T04:39:51;8.90;;;3.30;;
19482;SDS011;9882;51.166;6.992;2022-11-24T04:42:21;17.13;;;4.80;;
19482;SDS011;9882;51.166;6.992;2022-11-24T04:44:49;22.05;;;4.35;;
19482;SDS011;9882;51.166;6.992;2022-11-24T04:47:19;29.75;;;5.30;;
19482;SDS011;9882;51.166;6.992;2022-11-24T04:49:49;14.77;;;4.03;;
19482;SDS011;9882;51.166;6.992;2022-11-24T04:52:20;11.48;;;4.07;;
19482;SDS011;9882;51.166;6.992;2022-11-24T04:54:51;18.15;;;3.72;;
19482;SDS011;9882;51.166;6.992;2022-11-24T04:57:20;14.65;;;4.20;;
19482;SDS011;9882;51.166;6.992;2022-11-24T04:59:50;11.73;;;3.63;;
19482;SDS011;9882;51.166;6.992;2022-11-24T05:02:20;12.98;;;3.72;;
19482;SDS011;9882;51.166;6.992;2022-11-24T05:04:49;23.30;;;5.05;;
19482;SDS011;9882;51.166;6.992;2022-11-24T05:07:18;18.98;;;4.43;;
19482;SDS011;9882;51.166;6.992;2022-11-24T05:09:47;16.05;;;4.72;;
19482;SDS011;9882;51.166;6.992;2022-11-24T05:17:08;17.77;;;4.78;;
19482;SDS011;9882;51.166;6.992;2022-11-24T05:23:28;26.30;;;4.85;;
19482;SDS011;9882;51.166;6.992;2022-11-24T05:25:57;13.30;;;3.50;;
19482;SDS011;9882;51.166;6.992;2022-11-24T05:28:27;19.88;;;4.45;;
19482;SDS011;9882;51.166;6.992;2022-11-24T05:30:57;20.05;;;4.30;;
19482;SDS011;9882;51.166;6.992;2022-11-24T05:33:27;15.27;;;3.40;;
19482;SDS011;9882;51.166;6.992;2022-11-24T05:35:59;17.73;;;4.13;;
19482;SDS011;9882;51.166;6.992;2022-11-24T05:38:31;17.83;;;4.15;;
19482;SDS011;9882;51.166;6.992;2022-11-24T05:41:00;18.25;;;3.92;;
19482;SDS011;9882;51.166;6.992;2022-11-24T05:43:30;18.60;;;4.80;;
19482;SDS011;9882;51.166;6.992;2022-11-24T05:45:59;16.17;;;4.20;;
19482;SDS011;9882;51.166;6.992;2022-11-24T05:48:29;13.85;;;4.30;;
19482;SDS011;9882;51.166;6.992;2022-11-24T05:50:57;20.00;;;4.10;;
19482;SDS011;9882;51.166;6.992;2022-11-24T05:53:28;16.70;;;4.60;;
19482;SDS011;9882;51.166;6.992;2022-11-24T05:56:01;16.63;;;3.90;;
19482;SDS011;9882;51.166;6.992;2022-11-24T05:58:30;20.92;;;4.00;;
19482;SDS011;9882;51.166;6.992;2022-11-24T06:00:59;15.18;;;4.07;;
19482;SDS011;9882;51.166;6.992;2022-11-24T06:03:27;19.05;;;4.20;;
19482;SDS011;9882;51.166;6.992;2022-11-24T06:05:56;41.42;;;5.55;;
19482;SDS011;9882;51.166;6.992;2022-11-24T06:08:25;24.67;;;4.75;;
19482;SDS011;9882;51.166;6.992;2022-11-24T06:10:59;27.52;;;5.05;;
19482;SDS011;9882;51.166;6.992;2022-11-24T06:13:43;15.75;;;4.07;;
19482;SDS011;9882;51.166;6.992;2022-11-24T06:16:14;19.75;;;4.60;;
19482;SDS011;9882;51.166;6.992;2022-11-24T06:18:43;32.40;;;4.35;;
19482;SDS011;9882;51.166;6.992;2022-11-24T06:21:12;14.82;;;4.00;;
19482;SDS011;9882;51.166;6.992;2022-11-24T06:23:43;20.73;;;5.05;;
19482;SDS011;9882;51.166;6.992;2022-11-24T06:26:16;18.17;;;4.13;;
19482;SDS011;9882;51.166;6.992;2022-11-24T06:28:45;17.05;;;4.00;;
19482;SDS011;9882;51.166;6.992;2022-11-24T06:31:14;18.77;;;4.65;;
19482;SDS011;9882;51.166;6.992;2022-11-24T06:33:43;16.50;;;4.18;;
19482;SDS011;9882;51.166;6.992;2022-11-24T06:36:13;24.75;;;5.38;;
19482;SDS011;9882;51.166;6.992;2022-11-24T06:38:42;24.15;;;4.80;;
19482;SDS011;9882;51.166;6.992;2022-11-24T06:41:12;31.02;;;4.68;;
19482;SDS011;9882;51.166;6.992;2022-11-24T06:43:44;24.77;;;4.47;;
19482;SDS011;9882;51.166;6.992;2022-11-24T06:46:13;21.00;;;4.78;;
19482;SDS011;9882;51.166;6.992;2022-11-24T06:48:42;19.65;;;4.10;;
19482;SDS011;9882;51.166;6.992;2022-11-24T06:51:11;18.60;;;3.65;;
19482;SDS011;9882;51.166;6.992;2022-11-24T06:53:40;14.55;;;3.50;;
19482;SDS011;9882;51.166;6.992;2022-11-24T06:56:10;17.23;;;3.33;;
19482;SDS011;9882;51.166;6.992;2022-11-24T06:58:42;11.65;;;3.20;;
19482;SDS011;9882;51.166;6.992;2022-11-24T07:01:13;12.90;;;3.38;;
19482;SDS011;9882;51.166;6.992;2022-11-24T07:03:43;14.18;;;3.22;;
19482;SDS011;9882;51.166;6.992;2022-11-24T07:06:11;10.38;;;3.00;;
19482;SDS011;9882;51.166;6.992;2022-11-24T07:08:40;8.77;;;2.95;;
19482;SDS011;9882;51.166;6.992;2022-11-24T07:11:10;7.63;;;2.60;;
19482;SDS011;9882;51.166;6.992;2022-11-24T07:13:41;7.55;;;2.55;;
19482;SDS011;9882;51.166;6.992;2022-11-24T07:16:13;10.40;;;2.75;;
19482;SDS011;9882;51.166;6.992;2022-11-24T07:18:43;10.30;;;2.67;;
19482;SDS011;9882;51.166;6.992;2022-11-24T07:21:13;3.63;;;2.20;;
19482;SDS011;9882;51.166;6.992;2022-11-24T07:23:42;6.10;;;2.50;;
19482;SDS011;9882;51.166;6.992;2022-11-24T07:26:11;7.00;;;2.55;;
19482;SDS011;9882;51.166;6.992;2022-11-24T07:28:40;6.65;;;2.42;;
19482;SDS011;9882;51.166;6.992;2022-11-24T07:31:10;9.15;;;2.28;;
19482;SDS011;9882;51.166;6.992;2022-11-24T07:33:42;7.75;;;2.35;;
19482;SDS011;9882;51.166;6.992;2022-11-24T07:36:10;5.63;;;2.47;;
19482;SDS011;9882;51.166;6.992;2022-11-24T07:38:39;8.25;;;2.92;;
19482;SDS011;9882;51.166;6.992;2022-11-24T07:41:08;12.82;;;2.75;;
19482;SDS011;9882;51.166;6.992;2022-11-24T07:43:39;7.65;;;2.65;;
19482;SDS011;9882;51.166;6.992;2022-11-24T07:46:09;8.15;;;2.53;;
19482;SDS011;9882;51.166;6.992;2022-11-24T07:48:40;4.85;;;2.35;;
19482;SDS011;9882;51.166;6.992;2022-11-24T07:51:10;7.03;;;2.05;;
19482;SDS011;9882;51.166;6.992;2022-11-24T07:53:39;6.20;;;2.60;;
19482;SDS011;9882;51.166;6.992;2022-11-24T07:56:08;6.25;;;2.40;;
19482;SDS011;9882;51.166;6.992;2022-11-24T07:58:38;6.35;;;2.20;;
19482;SDS011;9882;51.166;6.992;2022-11-24T08:01:07;8.13;;;2.42;;
19482;SDS011;9882;51.166;6.992;2022-11-24T08:03:38;6.85;;;2.47;;
19482;SDS011;9882;51.166;6.992;2022-11-24T08:06:09;4.15;;;2.05;;
19482;SDS011;9882;51.166;6.992;2022-11-24T08:08:58;6.10;;;2.40;;
19482;SDS011;9882;51.166;6.992;2022-11-24T08:11:27;6.38;;;2.67;;
19482;SDS011;9882;51.166;6.992;2022-11-24T08:13:57;7.18;;;2.22;;
19482;SDS011;9882;51.166;6.992;2022-11-24T08:16:26;4.50;;;2.15;;
19482;SDS011;9882;51.166;6.992;2022-11-24T08:18:56;7.05;;;2.80;;
19482;SDS011;9882;51.166;6.992;2022-11-24T08:21:25;5.07;;;2.15;;
19482;SDS011;9882;51.166;6.992;2022-11-24T08:23:54;3.65;;;2.03;;
19482;SDS011;9882;51.166;6.992;2022-11-24T08:26:24;3.22;;;2.33;;
19482;SDS011;9882;51.166;6.992;2022-11-24T08:28:54;8.88;;;2.67;;
19482;SDS011;9882;51.166;6.992;2022-11-24T08:31:24;7.40;;;2.50;;
19482;SDS011;9882;51.166;6.992;2022-11-24T08:34:01;15.85;;;3.03;;
19482;SDS011;9882;51.166;6.992;2022-11-24T08:36:31;5.28;;;2.45;;
19482;SDS011;9882;51.166;6.992;2022-11-24T08:39:00;9.05;;;2.60;;
19482;SDS011;9882;51.166;6.992;2022-11-24T08:41:29;9.93;;;2.60;;
19482;SDS011;9882;51.166;6.992;2022-11-24T08:43:59;13.55;;;2.83;;
19482;SDS011;9882;51.166;6.992;2022-11-24T08:46:28;9.70;;;2.53;;
19482;SDS011;9882;51.166;6.992;2022-11-24T08:48:57;4.97;;;2.35;;
19482;SDS011;9882;51.166;6.992;2022-11-24T08:51:27;8.90;;;2.65;;
19482;SDS011;9882;51.166;6.992;2022-11-24T08:53:56;9.75;;;2.58;;
19482;SDS011;9882;51.166;6.992;2022-11-24T08:56:27;12.63;;;2.85;;
19482;SDS011;9882;51.166;6.992;2022-11-24T08:58:56;5.55;;;2.60;;
19482;SDS011;9882;51.166;6.992;2022-11-24T09:01:27;5.95;;;2.38;;
19482;SDS011;9882;51.166;6.992;2022-11-24T09:03:56;11.35;;;3.33;;
19482;SDS011;9882;51.166;6.992;2022-11-24T09:06:25;17.67;;;3.28;;
19482;SDS011;9882;51.166;6.992;2022-11-24T09:08:57;14.50;;;2.70;;
19482;SDS011;9882;51.166;6.992;2022-11-24T09:11:27;9.75;;;3.05;;
19482;SDS011;9882;51.166;6.992;2022-11-24T09:13:56;4.50;;;2.08;;
19482;SDS011;9882;51.166;6.992;2022-11-24T09:16:26;7.65;;;2.83;;
19482;SDS011;9882;51.166;6.992;2022-11-24T09:18:56;11.48;;;2.80;;
19482;SDS011;9882;51.166;6.992;2022-11-24T09:21:28;12.20;;;2.95;;
19482;SDS011;9882;51.166;6.992;2022-11-24T09:23:58;8.90;;;2.80;;
19482;SDS011;9882;51.166;6.992;2022-11-24T09:26:27;19.20;;;3.60;;
19482;SDS011;9882;51.166;6.992;2022-11-24T09:28:58;9.27;;;3.08;;
19482;SDS011;9882;51.166;6.992;2022-11-24T09:31:30;8.75;;;2.60;;
19482;SDS011;9882;51.166;6.992;2022-11-24T09:34:00;16.15;;;3.75;;
19482;SDS011;9882;51.166;6.992;2022-11-24T09:36:32;7.75;;;3.20;;
19482;SDS011;9882;51.166;6.992;2022-11-24T09:39:02;17.70;;;3.30;;
19482;SDS011;9882;51.166;6.992;2022-11-24T09:41:34;17.02;;;3.60;;
19482;SDS011;9882;51.166;6.992;2022-11-24T09:44:10;12.85;;;3.00;;
19482;SDS011;9882;51.166;6.992;2022-11-24T09:47:05;17.70;;;3.10;;
19482;SDS011;9882;51.166;6.992;2022-11-24T09:49:41;16.50;;;3.38;;
19482;SDS011;9882;51.166;6.992;2022-11-24T09:52:20;17.65;;;3.45;;
19482;SDS011;9882;51.166;6.992;2022-11-24T09:54:59;17.10;;;2.92;;
19482;SDS011;9882;51.166;6.992;2022-11-24T09:57:30;16.58;;;3.58;;
19482;SDS011;9882;51.166;6.992;2022-11-24T10:00:08;17.42;;;2.90;;
19482;SDS011;9882;51.166;6.992;2022-11-24T10:02:40;12.10;;;3.10;;
19482;SDS011;9882;51.166;6.992;2022-11-24T10:05:10;14.90;;;3.92;;
19482;SDS011;9882;51.166;6.992;2022-11-24T10:07:42;9.27;;;3.05;;
19482;SDS011;9882;51.166;6.992;2022-11-24T10:10:25;25.33;;;3.58;;
19482;SDS011;9882;51.166;6.992;2022-11-24T10:13:04;15.40;;;3.30;;
19482;SDS011;9882;51.166;6.992;2022-11-24T10:15:45;15.70;;;3.50;;
19482;SDS011;9882;51.166;6.992;2022-11-24T10:18:22;7.13;;;2.70;;
19482;SDS011;9882;51.166;6.992;2022-11-24T10:21:03;7.63;;;3.03;;
19482;SDS011;9882;51.166;6.992;2022-11-24T10:23:51;10.38;;;2.85;;
19482;SDS011;9882;51.166;6.992;2022-11-24T10:26:33;12.10;;;2.92;;
19482;SDS011;9882;51.166;6.992;2022-11-24T10:29:09;18.33;;;3.28;;
19482;SDS011;9882;51.166;6.992;2022-11-24T10:31:45;11.00;;;2.67;;
19482;SDS011;9882;51.166;6.992;2022-11-24T10:34:20;11.32;;;3.08;;
19482;SDS011;9882;51.166;6.992;2022-11-24T10:36:56;9.23;;;2.72;;
19482;SDS011;9882;51.166;6.992;2022-11-24T10:39:32;11.93;;;3.45;;
19482;SDS011;9882;51.166;6.992;2022-11-24T10:42:04;13.93;;;2.83;;
19482;SDS011;9882;51.166;6.992;2022-11-24T10:44:39;10.13;;;2.85;;
19482;SDS011;9882;51.166;6.992;2022-11-24T10:47:15;11.30;;;3.10;;
19482;SDS011;9882;51.166;6.992;2022-11-24T10:49:48;13.02;;;3.13;;
19482;SDS011;9882;51.166;6.992;2022-11-24T10:52:22;9.65;;;2.55;;
19482;SDS011;9882;51.166;6.992;2022-11-24T10:54:56;9.25;;;3.13;;
19482;SDS011;9882;51.166;6.992;2022-11-24T10:57:30;10.45;;;2.70;;
19482;SDS011;9882;51.166;6.992;2022-11-24T11:00:00;17.00;;;3.83;;
19482;SDS011;9882;51.166;6.992;2022-11-24T11:02:34;12.48;;;2.85;;
19482;SDS011;9882;51.166;6.992;2022-11-24T11:05:24;11.35;;;3.33;;
19482;SDS011;9882;51.166;6.992;2022-11-24T11:08:10;15.70;;;3.03;;
19482;SDS011;9882;51.166;6.992;2022-11-24T11:10:47;11.98;;;3.17;;
19482;SDS011;9882;51.166;6.992;2022-11-24T11:13:24;12.48;;;3.28;;
19482;SDS011;9882;51.166;6.992;2022-11-24T11:15:55;20.75;;;3.50;;
19482;SDS011;9882;51.166;6.992;2022-11-24T11:18:25;16.88;;;3.50;;
19482;SDS011;9882;51.166;6.992;2022-11-24T11:20:59;13.85;;;2.95;;
19482;SDS011;9882;51.166;6.992;2022-11-24T11:23:30;14.13;;;3.67;;
19482;SDS011;9882;51.166;6.992;2022-11-24T11:26:18;11.85;;;3.05;;
19482;SDS011;9882;51.166;6.992;2022-11-24T11:28:59;16.65;;;3.85;;
19482;SDS011;9882;51.166;6.992;2022-11-24T11:31:56;12.68;;;2.63;;
19482;SDS011;9882;51.166;6.992;2022-11-24T11:34:47;21.67;;;4.00;;
19482;SDS011;9882;51.166;6.992;2022-11-24T11:37:17;15.50;;;3.20;;
19482;SDS011;9882;51.166;6.992;2022-11-24T11:39:48;14.25;;;3.30;;
19482;SDS011;9882;51.166;6.992;2022-11-24T11:42:21;23.30;;;3.67;;
19482;SDS011;9882;51.166;6.992;2022-11-24T11:45:13;9.00;;;2.83;;
19482;SDS011;9882;51.166;6.992;2022-11-24T11:47:43;11.10;;;3.17;;
19482;SDS011;9882;51.166;6.992;2022-11-24T11:50:17;13.35;;;2.92;;
19482;SDS011;9882;51.166;6.992;2022-11-24T11:53:08;11.80;;;3.25;;
19482;SDS011;9882;51.166;6.992;2022-11-24T11:55:43;16.23;;;3.45;;
19482;SDS011;9882;51.166;6.992;2022-11-24T11:58:31;13.07;;;3.30;;
19482;SDS011;9882;51.166;6.992;2022-11-24T12:01:22;12.60;;;3.22;;
19482;SDS011;9882;51.166;6.992;2022-11-24T12:04:07;17.90;;;3.83;;
19482;SDS011;9882;51.166;6.992;2022-11-24T12:06:47;10.77;;;2.85;;
19482;SDS011;9882;51.166;6.992;2022-11-24T12:09:28;16.73;;;3.85;;
19482;SDS011;9882;51.166;6.992;2022-11-24T12:12:15;16.77;;;4.22;;
19482;SDS011;9882;51.166;6.992;2022-11-24T12:14:59;24.98;;;3.85;;
19482;SDS011;9882;51.166;6.992;2022-11-24T12:17:39;18.38;;;3.00;;
19482;SDS011;9882;51.166;6.992;2022-11-24T12:20:14;18.25;;;4.05;;
19482;SDS011;9882;51.166;6.992;2022-11-24T12:22:52;21.08;;;3.30;;
19482;SDS011;9882;51.166;6.992;2022-11-24T12:25:27;12.20;;;3.10;;
19482;SDS011;9882;51.166;6.992;2022-11-24T12:28:02;16.42;;;3.55;;
19482;SDS011;9882;51.166;6.992;2022-11-24T12:30:41;11.02;;;3.22;;
19482;SDS011;9882;51.166;6.992;2022-11-24T12:33:20;17.08;;;3.88;;
19482;SDS011;9882;51.166;6.992;2022-11-24T12:36:12;12.60;;;3.53;;
19482;SDS011;9882;51.166;6.992;2022-11-24T12:38:52;11.88;;;3.15;;
19482;SDS011;9882;51.166;6.992;2022-11-24T12:41:29;11.73;;;2.88;;
19482;SDS011;9882;51.166;6.992;2022-11-24T12:44:13;17.77;;;3.55;;
19482;SDS011;9882;51.166;6.992;2022-11-24T12:46:54;10.38;;;3.17;;
19482;SDS011;9882;51.166;6.992;2022-11-24T12:49:31;15.77;;;4.13;;
19482;SDS011;9882;51.166;6.992;2022-11-24T12:52:09;15.35;;;3.20;;
19482;SDS011;9882;51.166;6.992;2022-11-24T12:54:48;22.77;;;3.35;;
19482;SDS011;9882;51.166;6.992;2022-11-24T12:57:17;16.00;;;3.70;;
19482;SDS011;9882;51.166;6.992;2022-11-24T12:59:53;15.90;;;3.58;;
19482;SDS011;9882;51.166;6.992;2022-11-24T13:02:32;17.27;;;3.65;;
19482;SDS011;9882;51.166;6.992;2022-11-24T13:05:12;13.30;;;2.67;;
19482;SDS011;9882;51.166;6.992;2022-11-24T13:07:48;8.75;;;3.30;;
19482;SDS011;9882;51.166;6.992;2022-11-24T13:10:25;10.18;;;3.05;;
19482;SDS011;9882;51.166;6.992;2022-11-24T13:13:12;18.33;;;4.25;;
19482;SDS011;9882;51.166;6.992;2022-11-24T13:19:11;7.53;;;2.88;;
19482;SDS011;9882;51.166;6.992;2022-11-24T13:21:45;16.13;;;3.55;;
19482;SDS011;9882;51.166;6.992;2022-11-24T13:24:20;13.35;;;3.70;;
19482;SDS011;9882;51.166;6.992;2022-11-24T13:26:52;18.65;;;4.22;;
19482;SDS011;9882;51.166;6.992;2022-11-24T13:29:29;22.02;;;4.22;;
19482;SDS011;9882;51.166;6.992;2022-11-24T13:35:15;7.53;;;2.88;;
19482;SDS011;9882;51.166;6.992;2022-11-24T13:37:45;15.75;;;3.25;;
19482;SDS011;9882;51.166;6.992;2022-11-24T13:40:38;22.70;;;3.78;;
19482;SDS011;9882;51.166;6.992;2022-11-24T13:43:19;17.85;;;4.07;;
19482;SDS011;9882;51.166;6.992;2022-11-24T13:45:50;15.13;;;3.80;;
19482;SDS011;9882;51.166;6.992;2022-11-24T13:51:27;15.55;;;3.72;;
19482;SDS011;9882;51.166;6.992;2022-11-24T13:53:55;16.60;;;3.63;;
19482;SDS011;9882;51.166;6.992;2022-11-24T13:56:27;22.80;;;4.65;;
19482;SDS011;9882;51.166;6.992;2022-11-24T13:58:58;17.63;;;4.20;;
19482;SDS011;9882;51.166;6.992;2022-11-24T14:01:29;13.90;;;3.47;;
19482;SDS011;9882;51.166;6.992;2022-11-24T14:04:15;10.98;;;3.63;;
19482;SDS011;9882;51.166;6.992;2022-11-24T14:07:03;15.65;;;3.83;;
19482;SDS011;9882;51.166;6.992;2022-11-24T14:09:36;16.30;;;3.55;;
19482;SDS011;9882;51.166;6.992;2022-11-24T14:12:11;17.33;;;4.22;;
19482;SDS011;9882;51.166;6.992;2022-11-24T14:14:42;16.65;;;3.78;;
19482;SDS011;9882;51.166;6.992;2022-11-24T14:17:18;8.65;;;2.70;;
19482;SDS011;9882;51.166;6.992;2022-11-24T14:19:49;17.10;;;3.83;;
19482;SDS011;9882;51.166;6.992;2022-11-24T14:22:20;15.55;;;3.45;;
19482;SDS011;9882;51.166;6.992;2022-11-24T14:24:52;22.10;;;3.65;;
19482;SDS011;9882;51.166;6.992;2022-11-24T14:27:25;10.30;;;3.53;;
19482;SDS011;9882;51.166;6.992;2022-11-24T14:29:57;22.95;;;3.35;;
19482;SDS011;9882;51.166;6.992;2022-11-24T14:32:27;12.18;;;3.38;;
19482;SDS011;9882;51.166;6.992;2022-11-24T14:34:56;14.30;;;3.22;;
19482;SDS011;9882;51.166;6.992;2022-11-24T14:37:25;18.15;;;3.55;;
19482;SDS011;9882;51.166;6.992;2022-11-24T14:39:54;12.20;;;3.20;;
19482;SDS011;9882;51.166;6.992;2022-11-24T14:42:23;14.80;;;3.60;;
19482;SDS011;9882;51.166;6.992;2022-11-24T14:44:54;22.20;;;4.20;;
19482;SDS011;9882;51.166;6.992;2022-11-24T14:47:28;9.93;;;3.35;;
19482;SDS011;9882;51.166;6.992;2022-11-24T14:50:06;14.00;;;3.67;;
19482;SDS011;9882;51.166;6.992;2022-11-24T14:52:43;11.40;;;3.47;;
19482;SDS011;9882;51.166;6.992;2022-11-24T14:55:23;15.95;;;3.05;;
19482;SDS011;9882;51.166;6.992;2022-11-24T14:57:53;9.68;;;3.05;;
19482;SDS011;9882;51.166;6.992;2022-11-24T15:00:26;17.95;;;3.50;;
19482;SDS011;9882;51.166;6.992;2022-11-24T15:03:06;11.48;;;3.45;;
19482;SDS011;9882;51.166;6.992;2022-11-24T15:05:52;10.60;;;3.00;;
19482;SDS011;9882;51.166;6.992;2022-11-24T15:08:23;23.40;;;3.83;;
19482;SDS011;9882;51.166;6.992;2022-11-24T15:10:54;13.32;;;3.65;;
19482;SDS011;9882;51.166;6.992;2022-11-24T15:13:25;15.05;;;3.83;;
19482;SDS011;9882;51.166;6.992;2022-11-24T15:15:56;13.70;;;3.13;;
19482;SDS011;9882;51.166;6.992;2022-11-24T15:18:31;13.95;;;4.30;;
19482;SDS011;9882;51.166;6.992;2022-11-24T15:21:03;10.32;;;2.33;;
19482;SDS011;9882;51.166;6.992;2022-11-24T15:23:33;5.53;;;2.45;;
19482;SDS011;9882;51.166;6.992;2022-11-24T15:28:55;17.17;;;4.47;;
19482;SDS011;9882;51.166;6.992;2022-11-24T15:31:23;9.57;;;2.83;;
19482;SDS011;9882;51.166;6.992;2022-11-24T15:33:51;11.15;;;3.60;;
19482;SDS011;9882;51.166;6.992;2022-11-24T15:36:20;20.35;;;4.00;;
19482;SDS011;9882;51.166;6.992;2022-11-24T15:38:50;18.13;;;4.70;;
19482;SDS011;9882;51.166;6.992;2022-11-24T15:41:19;10.85;;;3.35;;
19482;SDS011;9882;51.166;6.992;2022-11-24T15:43:48;12.10;;;3.10;;
19482;SDS011;9882;51.166;6.992;2022-11-24T15:46:24;7.00;;;2.97;;
19482;SDS011;9882;51.166;6.992;2022-11-24T15:48:53;18.90;;;5.07;;
19482;SDS011;9882;51.166;6.992;2022-11-24T15:51:23;7.15;;;3.13;;
19482;SDS011;9882;51.166;6.992;2022-11-24T15:53:54;13.82;;;3.80;;
19482;SDS011;9882;51.166;6.992;2022-11-24T15:56:27;12.80;;;3.40;;
19482;SDS011;9882;51.166;6.992;2022-11-24T15:58:58;11.98;;;3.42;;
19482;SDS011;9882;51.166;6.992;2022-11-24T16:01:28;17.58;;;3.90;;
19482;SDS011;9882;51.166;6.992;2022-11-24T16:03:58;14.38;;;3.95;;
19482;SDS011;9882;51.166;6.992;2022-11-24T16:06:26;15.38;;;4.65;;
19482;SDS011;9882;51.166;6.992;2022-11-24T16:08:58;12.48;;;4.00;;
19482;SDS011;9882;51.166;6.992;2022-11-24T16:11:27;20.25;;;4.60;;
19482;SDS011;9882;51.166;6.992;2022-11-24T16:13:55;20.75;;;4.43;;
19482;SDS011;9882;51.166;6.992;2022-11-24T16:16:24;18.10;;;4.45;;
19482;SDS011;9882;51.166;6.992;2022-11-24T16:18:52;21.73;;;4.68;;
19482;SDS011;9882;51.166;6.992;2022-11-24T16:21:21;14.60;;;3.88;;
19482;SDS011;9882;51.166;6.992;2022-11-24T16:23:49;20.90;;;4.88;;
19482;SDS011;9882;51.166;6.992;2022-11-24T16:26:19;18.58;;;4.53;;
19482;SDS011;9882;51.166;6.992;2022-11-24T16:28:48;9.75;;;3.47;;
19482;SDS011;9882;51.166;6.992;2022-11-24T16:31:16;23.48;;;6.07;;
19482;SDS011;9882;51.166;6.992;2022-11-24T16:33:45;15.10;;;4.38;;
19482;SDS011;9882;51.166;6.992;2022-11-24T16:36:14;18.67;;;4.65;;
19482;SDS011;9882;51.166;6.992;2022-11-24T16:38:42;14.20;;;5.05;;
19482;SDS011;9882;51.166;6.992;2022-11-24T16:41:11;12.20;;;4.15;;
19482;SDS011;9882;51.166;6.992;2022-11-24T16:43:40;14.05;;;4.43;;
19482;SDS011;9882;51.166;6.992;2022-11-24T16:46:16;9.77;;;3.72;;